Time;durP1;ratioP1;P1;durP2;ratioP2;P2;SDS_P1;SDS_P2;PMS_P1;PMS_P2;Temp;Humidity;BMP_temperature;BMP_pressure;BME280_temperature;BME280_humidity;BME280_pressure;Samples;Min_cycle;Max_cycle;Signal;HPM_P1;HPM_P2
2022/12/20 00:00:46;;;;;;;12.20;8.60;;;;;;;8.82;57.21;98002.78;5056364;28;20186;-71
2022/12/20 00:03:12;;;;;;;14.73;9.60;;;;;;;8.81;57.33;98007.19;5055765;28;20457;-69
2022/12/20 00:05:38;;;;;;;12.23;8.50;;;;;;;8.81;57.76;98006.38;5064995;28;20179;-70
2022/12/20 00:08:05;;;;;;;11.23;9.33;;;;;;;8.81;57.33;98001.13;5054889;28;20202;-70
2022/12/20 00:10:30;;;;;;;11.63;9.03;;;;;;;8.73;57.30;97999.94;5055941;28;20437;-69
2022/12/20 00:12:55;;;;;;;12.37;8.60;;;;;;;8.69;57.42;97997.69;5063229;28;20776;-69
2022/12/20 00:15:21;;;;;;;11.10;8.70;;;;;;;8.67;57.98;97978.69;5061368;28;20191;-70
2022/12/20 00:17:46;;;;;;;14.70;9.50;;;;;;;8.66;58.29;97987.47;5061575;28;20183;-68
2022/12/20 00:20:12;;;;;;;13.37;8.77;;;;;;;8.60;58.27;97983.56;5057754;28;20704;-67
2022/12/20 00:22:37;;;;;;;16.97;9.87;;;;;;;8.54;58.29;97973.59;5062558;28;20175;-69
2022/12/20 00:25:04;;;;;;;12.03;9.03;;;;;;;8.50;58.45;97962.56;5060893;28;20195;-69
2022/12/20 00:27:29;;;;;;;15.70;10.50;;;;;;;8.52;58.45;97957.22;5067230;28;20209;-68
2022/12/20 00:29:54;;;;;;;17.07;11.17;;;;;;;8.56;58.04;97966.47;5063236;28;20922;-68
2022/12/20 00:32:20;;;;;;;13.27;10.53;;;;;;;8.68;57.69;97973.34;5060265;28;20211;-69
2022/12/20 00:34:45;;;;;;;13.63;9.50;;;;;;;8.71;57.53;97975.69;5057786;28;20251;-69
2022/12/20 00:37:11;;;;;;;13.30;8.67;;;;;;;8.64;57.51;97969.31;5060261;28;20265;-70
2022/12/20 00:39:36;;;;;;;15.70;10.20;;;;;;;8.67;57.23;97958.63;5063678;28;20211;-70
2022/12/20 00:42:02;;;;;;;21.47;9.77;;;;;;;8.61;57.67;97951.25;5058796;28;20213;-70
2022/12/20 00:44:27;;;;;;;13.53;9.33;;;;;;;8.64;57.17;97960.63;5065492;28;20202;-69
2022/12/20 00:46:52;;;;;;;14.93;10.07;;;;;;;8.64;57.46;97953.63;5070566;28;20660;-67
2022/12/20 00:49:18;;;;;;;13.73;9.30;;;;;;;8.62;57.46;97968.59;5072841;28;20599;-69
2022/12/20 00:51:43;;;;;;;12.57;9.50;;;;;;;8.58;57.71;97967.16;5072061;28;20174;-67
2022/12/20 00:54:09;;;;;;;11.60;8.73;;;;;;;8.51;57.36;97958.16;5066567;28;20179;-66
2022/12/20 00:56:34;;;;;;;16.80;11.10;;;;;;;8.41;57.79;97947.56;5073677;28;20182;-67
2022/12/20 00:59:00;;;;;;;15.43;11.50;;;;;;;8.39;58.59;97960.75;5073411;28;20201;-68
2022/12/20 01:01:29;;;;;;;21.07;13.40;;;;;;;8.37;57.94;97961.84;5063166;28;20223;-70
2022/12/20 01:03:54;;;;;;;20.50;13.50;;;;;;;8.32;57.75;97961.34;5070487;28;20201;-70
2022/12/20 01:06:21;;;;;;;23.73;15.03;;;;;;;8.33;57.46;97971.66;5063225;28;20412;-69
2022/12/20 01:08:47;;;;;;;23.80;15.73;;;;;;;8.25;57.87;97974.88;5072593;28;20447;-69
2022/12/20 01:11:15;;;;;;;27.60;17.20;;;;;;;8.22;57.83;97975.13;5067088;28;20421;-69
2022/12/20 01:13:44;;;;;;;25.10;17.63;;;;;;;8.13;57.61;97976.66;5063091;28;20625;-69
2022/12/20 01:16:19;;;;;;;25.13;17.60;;;;;;;8.12;57.75;97984.63;5068613;28;20413;-69
2022/12/20 01:18:44;;;;;;;25.77;17.00;;;;;;;8.02;58.19;97984.50;5065240;28;20483;-69
2022/12/20 01:21:12;;;;;;;24.20;15.73;;;;;;;8.12;58.62;97980.22;5072571;28;20488;-68
2022/12/20 01:23:39;;;;;;;23.73;14.90;;;;;;;8.17;58.62;97981.66;5065344;28;20544;-69
2022/12/20 01:26:09;;;;;;;28.07;16.87;;;;;;;8.15;58.78;97969.56;5073020;28;20473;-70
2022/12/20 01:28:36;;;;;;;25.10;18.27;;;;;;;8.15;58.46;97974.78;5055989;28;20446;-69
2022/12/20 01:31:05;;;;;;;24.77;16.27;;;;;;;8.19;58.05;97971.94;5071051;28;20477;-69
2022/12/20 01:33:30;;;;;;;23.97;16.50;;;;;;;8.18;57.97;97968.47;5068135;28;20768;-68
2022/12/20 01:35:57;;;;;;;22.30;15.30;;;;;;;8.21;58.30;97963.03;5072268;28;20432;-69
2022/12/20 01:38:22;;;;;;;27.90;17.90;;;;;;;8.25;57.65;97968.84;5071843;28;20187;-68
2022/12/20 01:40:48;;;;;;;25.90;16.47;;;;;;;8.29;57.99;97959.81;5071115;28;20961;-68
2022/12/20 01:43:15;;;;;;;24.00;16.20;;;;;;;8.18;58.40;97960.63;5064524;28;20227;-68
2022/12/20 01:45:40;;;;;;;21.80;15.30;;;;;;;8.11;58.94;97962.91;5064226;28;20265;-68
2022/12/20 01:48:06;;;;;;;25.13;16.53;;;;;;;8.06;58.25;97975.50;5071409;28;20536;-68
2022/12/20 01:50:33;;;;;;;23.50;16.57;;;;;;;8.06;58.16;97965.03;5067495;28;20241;-67
2022/12/20 01:52:59;;;;;;;25.67;17.37;;;;;;;8.06;58.27;97964.19;5068340;28;20189;-68
2022/12/20 01:55:26;;;;;;;28.77;19.63;;;;;;;7.96;58.37;97974.50;5069993;28;20986;-68
2022/12/20 01:57:56;;;;;;;29.90;17.73;;;;;;;7.94;58.72;97951.13;5066483;28;20201;-68
2022/12/20 02:00:22;;;;;;;26.87;17.63;;;;;;;7.89;58.56;97949.84;5071446;28;20535;-68
2022/12/20 02:02:48;;;;;;;28.30;18.57;;;;;;;7.86;58.76;97963.94;5061266;28;20908;-68
2022/12/20 02:05:15;;;;;;;32.33;18.77;;;;;;;7.84;58.63;97945.78;5069496;28;20278;-69
2022/12/20 02:07:41;;;;;;;26.70;18.10;;;;;;;7.76;58.76;97937.72;5071735;28;20486;-68
2022/12/20 02:10:08;;;;;;;29.87;19.67;;;;;;;7.62;59.30;97950.97;5065368;28;20795;-68
2022/12/20 02:12:44;;;;;;;35.10;18.00;;;;;;;7.66;59.61;97942.78;5064513;28;20504;-67
2022/12/20 02:15:30;;;;;;;29.37;17.63;;;;;;;7.67;59.68;97938.41;5071375;28;20420;-68
2022/12/20 02:18:28;;;;;;;25.87;16.60;;;;;;;7.76;59.11;97932.50;5060881;28;20454;-68
2022/12/20 02:21:00;;;;;;;23.23;16.70;;;;;;;7.81;58.93;97924.31;5070569;28;20459;-68
2022/12/20 02:23:25;;;;;;;24.80;16.83;;;;;;;7.87;59.13;97925.63;5063183;28;20465;-69
2022/12/20 02:26:09;;;;;;;28.37;18.80;;;;;;;7.78;59.69;97922.78;5062399;28;20917;-67
2022/12/20 02:28:59;;;;;;;26.90;16.63;;;;;;;7.93;58.83;97918.16;5049578;28;20190;-68
2022/12/20 02:31:37;;;;;;;24.00;15.60;;;;;;;7.89;58.96;97929.75;5063458;28;20414;-68
2022/12/20 02:34:04;;;;;;;25.33;16.37;;;;;;;8.00;58.93;97919.31;5066904;28;20424;-68
2022/12/20 02:36:30;;;;;;;21.93;14.97;;;;;;;8.03;58.42;97928.72;5057998;28;20432;-68
2022/12/20 02:38:55;;;;;;;21.47;15.30;;;;;;;8.05;58.48;97921.59;5069054;28;20527;-69
2022/12/20 02:41:29;;;;;;;21.97;15.23;;;;;;;8.09;58.55;97925.63;5065329;28;20219;-68
2022/12/20 02:47:09;;;;;;;26.40;15.83;;;;;;;8.06;58.61;97923.28;5070097;28;20424;-69
2022/12/20 02:49:37;;;;;;;20.93;15.33;;;;;;;8.05;58.73;97916.38;5057001;28;21019;-68
2022/12/20 02:52:03;;;;;;;24.63;16.07;;;;;;;8.06;58.93;97915.44;5066616;28;20425;-68
2022/12/20 02:54:29;;;;;;;24.40;15.50;;;;;;;8.10;59.17;97908.19;5059798;28;20417;-68
2022/12/20 02:57:34;;;;;;;19.50;14.23;;;;;;;8.14;59.17;97904.38;5063762;28;20451;-68
2022/12/20 03:00:25;;;;;;;19.53;13.70;;;;;;;8.04;58.82;97908.66;5061136;28;20198;-68
2022/12/20 03:05:43;;;;;;;22.70;14.27;;;;;;;8.11;59.15;97887.16;5058562;28;20971;-68
2022/12/20 03:08:08;;;;;;;20.07;13.97;;;;;;;8.15;58.82;97880.78;5064256;28;20422;-68
2022/12/20 03:10:34;;;;;;;16.83;13.07;;;;;;;8.14;58.63;97886.09;5070318;28;20468;-67
2022/12/20 03:12:59;;;;;;;18.57;12.67;;;;;;;8.13;59.40;97887.88;5059441;28;20221;-68
2022/12/20 03:15:25;;;;;;;19.17;11.70;;;;;;;8.22;58.89;97899.41;5059592;28;20269;-68
2022/12/20 03:17:50;;;;;;;17.07;12.60;;;;;;;8.24;58.93;97891.44;5061189;28;20645;-68
2022/12/20 03:20:16;;;;;;;18.07;11.80;;;;;;;8.32;58.96;97883.00;5063061;28;20282;-67
2022/12/20 03:22:41;;;;;;;16.80;11.80;;;;;;;8.37;58.29;97884.28;5063247;28;20806;-67
2022/12/20 03:25:07;;;;;;;18.23;11.90;;;;;;;8.38;58.79;97872.91;5063980;28;20722;-68
2022/12/20 03:27:33;;;;;;;15.80;11.90;;;;;;;8.39;58.42;97868.47;5064371;28;20182;-68
2022/12/20 03:29:58;;;;;;;19.53;13.20;;;;;;;8.25;58.75;97867.78;5068542;28;20233;-67
2022/12/20 03:32:23;;;;;;;20.67;13.90;;;;;;;8.16;58.79;97860.69;5061290;28;20201;-68
2022/12/20 03:34:49;;;;;;;25.03;14.10;;;;;;;8.03;59.01;97862.59;5062216;28;20210;-68
2022/12/20 03:37:15;;;;;;;19.80;13.70;;;;;;;8.09;58.39;97868.19;5071398;28;20218;-68
2022/12/20 03:39:40;;;;;;;22.53;15.63;;;;;;;8.15;58.43;97872.09;5067530;28;20214;-68
2022/12/20 03:42:06;;;;;;;21.77;14.70;;;;;;;8.08;58.35;97870.91;5062074;28;20517;-68
2022/12/20 03:44:31;;;;;;;18.07;13.20;;;;;;;8.11;58.60;97881.94;5065985;28;20202;-68
2022/12/20 03:46:57;;;;;;;15.17;10.20;;;;;;;8.17;59.25;97874.59;5069026;28;20186;-69
2022/12/20 03:49:22;;;;;;;13.90;9.20;;;;;;;8.28;59.37;97880.63;5064356;28;20206;-68
2022/12/20 03:51:47;;;;;;;18.03;11.50;;;;;;;8.34;59.20;97870.66;5067155;28;20277;-68
2022/12/20 03:54:13;;;;;;;14.83;11.40;;;;;;;8.26;58.47;97866.03;5068108;28;20183;-69
2022/12/20 03:56:38;;;;;;;16.90;11.93;;;;;;;8.27;58.21;97865.91;5060849;28;20633;-68
2022/12/20 03:59:04;;;;;;;18.23;12.23;;;;;;;8.29;58.94;97871.03;5062529;28;20240;-69
2022/12/20 04:01:29;;;;;;;16.80;12.07;;;;;;;8.33;58.50;97871.59;5066742;28;20178;-68
2022/12/20 04:03:55;;;;;;;17.73;12.00;;;;;;;8.32;58.33;97862.91;5061181;28;20637;-68
2022/12/20 04:06:21;;;;;;;19.73;12.17;;;;;;;8.33;58.46;97861.97;5063759;28;20187;-68
2022/12/20 04:08:47;;;;;;;15.20;11.20;;;;;;;8.36;58.30;97856.50;5067456;28;20222;-70
2022/12/20 04:11:15;;;;;;;15.53;10.60;;;;;;;8.30;58.74;97851.78;5063675;28;21131;-67
2022/12/20 04:13:51;;;;;;;15.07;10.97;;;;;;;8.28;58.57;97851.06;5068386;28;20594;-69
2022/12/20 04:16:19;;;;;;;14.73;10.70;;;;;;;8.32;59.11;97838.59;5066366;28;20417;-68
2022/12/20 04:18:44;;;;;;;27.13;16.90;;;;;;;8.33;59.06;97837.66;5066535;28;20943;-68
2022/12/20 04:21:11;;;;;;;24.73;16.20;;;;;;;8.36;58.72;97840.03;5058177;28;20436;-68
2022/12/20 04:23:37;;;;;;;21.87;13.77;;;;;;;8.38;58.58;97838.13;5044641;28;20211;-69
2022/12/20 04:26:04;;;;;;;18.93;11.90;;;;;;;8.37;59.09;97847.72;5058105;28;20438;-68
2022/12/20 04:28:29;;;;;;;14.97;10.27;;;;;;;8.42;58.74;97840.34;5058614;28;20570;-68
2022/12/20 04:30:55;;;;;;;13.97;9.70;;;;;;;8.42;58.92;97845.59;5060373;28;20434;-68
2022/12/20 04:33:21;;;;;;;18.43;11.00;;;;;;;8.40;58.82;97863.16;5053419;28;20218;-70
2022/12/20 04:35:46;;;;;;;12.07;8.63;;;;;;;8.40;58.69;97850.09;5059316;28;20199;-67
2022/12/20 04:38:12;;;;;;;15.13;9.87;;;;;;;8.33;59.34;97833.25;5060951;28;20421;-67
2022/12/20 04:40:37;;;;;;;15.60;9.80;;;;;;;8.33;59.49;97829.81;5060927;28;20216;-70
2022/12/20 04:43:03;;;;;;;13.53;9.30;;;;;;;8.33;58.90;97828.00;5062322;28;20221;-68
2022/12/20 04:45:28;;;;;;;11.40;7.43;;;;;;;8.32;59.55;97828.97;5060401;28;20271;-67
2022/12/20 04:47:53;;;;;;;11.60;8.20;;;;;;;8.41;59.73;97825.63;5066370;28;20182;-69
2022/12/20 04:50:19;;;;;;;11.63;8.30;;;;;;;8.36;59.34;97814.72;5061370;28;22641;-68
2022/12/20 04:55:28;;;;;;;11.20;8.20;;;;;;;8.54;59.45;97819.44;5065051;28;20194;-68
2022/12/20 04:57:53;;;;;;;12.70;9.73;;;;;;;8.54;58.98;97819.44;5064335;28;20763;-69
2022/12/20 05:00:19;;;;;;;10.93;8.70;;;;;;;8.60;59.11;97813.72;5066899;28;20282;-69
2022/12/20 05:02:45;;;;;;;14.87;10.57;;;;;;;8.67;58.64;97820.13;5062810;28;20206;-68
2022/12/20 05:05:10;;;;;;;11.23;8.10;;;;;;;8.63;58.41;97813.47;5067226;28;20198;-69
2022/12/20 05:07:36;;;;;;;12.57;8.50;;;;;;;8.67;58.50;97812.28;5058645;28;20187;-68
2022/12/20 05:10:02;;;;;;;13.80;8.70;;;;;;;8.63;58.45;97816.09;5061936;28;20275;-68
2022/12/20 05:12:27;;;;;;;16.10;8.23;;;;;;;8.69;58.25;97810.38;5067180;28;20190;-68
2022/12/20 05:14:52;;;;;;;9.53;7.67;;;;;;;8.69;58.69;97799.91;5060732;28;20183;-68
2022/12/20 05:17:18;;;;;;;10.33;7.37;;;;;;;8.80;59.03;97806.03;5067786;28;20270;-68
2022/12/20 05:19:43;;;;;;;9.90;7.70;;;;;;;8.86;58.33;97795.06;5059956;28;20286;-70
2022/12/20 05:27:37;;;;;;;10.50;7.80;;;;;;;8.87;58.63;97783.66;5059829;28;20428;-70
2022/12/20 05:30:04;;;;;;;9.40;6.70;;;;;;;8.87;58.64;97784.50;5062873;28;20536;-68
2022/12/20 05:32:29;;;;;;;9.63;7.07;;;;;;;8.90;58.92;97781.59;5059370;28;20726;-69
2022/12/20 05:34:55;;;;;;;9.00;6.77;;;;;;;8.96;58.81;97782.06;5057130;28;20418;-70
2022/12/20 05:37:20;;;;;;;8.00;6.30;;;;;;;9.00;58.95;97786.09;5052584;28;20210;-71
2022/12/20 05:39:46;;;;;;;13.10;7.03;;;;;;;9.04;58.14;97783.09;5056592;28;20281;-68
2022/12/20 05:42:11;;;;;;;9.03;6.50;;;;;;;9.04;58.72;97780.47;5057887;28;20641;-68
2022/12/20 05:44:37;;;;;;;7.73;6.47;;;;;;;9.07;58.97;97780.19;5063405;28;20657;-69
2022/12/20 05:47:02;;;;;;;8.83;6.53;;;;;;;9.06;58.43;97775.94;5051531;28;20266;-68
2022/12/20 05:49:27;;;;;;;8.87;6.40;;;;;;;9.08;58.12;97778.44;5061457;28;20202;-69
2022/12/20 05:51:53;;;;;;;10.10;6.83;;;;;;;9.06;58.28;97775.94;5061214;28;20207;-69
2022/12/20 05:54:18;;;;;;;8.93;6.27;;;;;;;9.02;58.52;97764.09;5058994;28;20739;-68
2022/12/20 05:56:44;;;;;;;7.60;6.37;;;;;;;8.90;58.32;97770.34;5060897;28;20252;-68
2022/12/20 05:59:09;;;;;;;7.67;6.17;;;;;;;9.09;58.20;97768.78;5056712;28;20226;-68
2022/12/20 06:01:35;;;;;;;8.90;6.40;;;;;;;9.16;57.83;97759.47;5046033;28;20171;-68
2022/12/20 06:04:01;;;;;;;14.83;5.83;;;;;;;9.15;57.98;97757.81;5045089;28;20202;-69
2022/12/20 06:06:26;;;;;;;8.67;6.30;;;;;;;9.07;57.88;97754.03;5040093;28;20424;-68
2022/12/20 06:08:52;;;;;;;8.17;6.23;;;;;;;9.03;58.07;97757.06;5041790;28;20203;-68
2022/12/20 06:11:17;;;;;;;6.33;5.73;;;;;;;9.01;57.80;97764.22;5057551;28;20193;-68
2022/12/20 06:13:43;;;;;;;10.57;6.50;;;;;;;9.12;57.97;97763.31;5061136;28;20654;-69
2022/12/20 06:16:08;;;;;;;9.20;6.13;;;;;;;9.16;57.97;97772.56;5060621;28;20183;-68
2022/12/20 06:18:34;;;;;;;8.40;6.00;;;;;;;9.16;57.94;97775.16;5060793;28;20188;-68
2022/12/20 06:21:00;;;;;;;8.27;5.80;;;;;;;9.19;57.97;97772.31;5058784;28;20186;-70
2022/12/20 06:23:26;;;;;;;13.03;6.60;;;;;;;9.21;57.83;97758.13;5059146;28;20903;-69
2022/12/20 06:25:51;;;;;;;9.40;6.93;;;;;;;9.23;57.50;97760.59;5051295;28;20429;-69
2022/12/20 06:28:21;;;;;;;8.30;6.23;;;;;;;9.27;57.22;97767.25;5050540;28;20229;-68
2022/12/20 06:30:53;;;;;;;11.70;6.20;;;;;;;9.24;57.18;97775.34;5051030;28;20213;-68
2022/12/20 06:33:19;;;;;;;8.77;6.00;;;;;;;9.22;57.50;97774.63;5066402;28;20495;-68
2022/12/20 06:35:44;;;;;;;7.43;5.77;;;;;;;9.26;57.39;97776.03;5048698;28;20438;-68
2022/12/20 06:38:11;;;;;;;9.17;6.00;;;;;;;9.22;57.43;97770.25;5051459;28;20663;-68
2022/12/20 06:40:36;;;;;;;9.20;6.03;;;;;;;9.18;57.66;97774.06;5051815;28;20202;-68
2022/12/20 06:43:01;;;;;;;6.20;5.30;;;;;;;9.21;58.02;97781.66;5054899;28;20524;-70
2022/12/20 06:45:27;;;;;;;10.67;6.10;;;;;;;9.21;57.65;97783.44;5059788;28;20198;-69
2022/12/20 06:47:52;;;;;;;7.53;5.70;;;;;;;9.22;57.88;97777.25;5050724;28;20600;-69
2022/12/20 06:50:18;;;;;;;11.27;6.37;;;;;;;9.31;57.59;97779.13;5050524;28;20214;-68
2022/12/20 06:52:43;;;;;;;16.17;6.10;;;;;;;9.17;57.75;97782.06;5051376;28;20187;-70
2022/12/20 06:55:09;;;;;;;9.80;6.40;;;;;;;9.27;57.30;97784.72;5050777;28;20190;-69
2022/12/20 06:57:34;;;;;;;8.30;5.80;;;;;;;9.33;57.97;97776.34;5050427;28;20258;-68
2022/12/20 07:00:00;;;;;;;9.43;5.80;;;;;;;9.37;57.58;97768.09;5051043;28;20207;-68
2022/12/20 07:02:25;;;;;;;7.00;5.57;;;;;;;9.45;57.63;97764.03;5049095;28;20187;-69
2022/12/20 07:04:51;;;;;;;12.77;6.20;;;;;;;9.48;57.11;97763.75;5055963;28;20210;-68
2022/12/20 07:07:16;;;;;;;6.70;5.40;;;;;;;9.54;56.95;97773.69;5052182;28;20646;-68
2022/12/20 07:09:42;;;;;;;7.23;5.50;;;;;;;9.55;56.76;97769.28;5053231;28;20652;-68
2022/12/20 07:12:08;;;;;;;7.37;5.53;;;;;;;9.51;57.23;97766.91;5058679;28;20191;-68
2022/12/20 07:14:33;;;;;;;10.13;6.13;;;;;;;9.51;56.87;97768.72;5059087;28;20171;-68
2022/12/20 07:16:59;;;;;;;9.90;6.07;;;;;;;9.53;57.13;97767.63;5053746;28;20418;-68
2022/12/20 07:19:25;;;;;;;7.30;5.57;;;;;;;9.53;56.89;97767.63;5050612;28;20234;-69
2022/12/20 07:21:50;;;;;;;7.70;5.43;;;;;;;9.56;56.92;97760.47;5049757;28;20191;-67
2022/12/20 07:24:15;;;;;;;9.00;6.17;;;;;;;9.57;57.11;97764.75;5050373;28;20214;-68
2022/12/20 07:26:44;;;;;;;6.50;5.53;;;;;;;9.58;56.66;97759.38;5055307;28;20273;-68
2022/12/20 07:29:10;;;;;;;5.43;4.83;;;;;;;9.58;57.37;97764.59;5051917;28;20217;-70
2022/12/20 07:31:35;;;;;;;7.30;5.40;;;;;;;9.61;57.36;97759.13;5046601;28;20425;-70
2022/12/20 07:34:01;;;;;;;7.40;5.67;;;;;;;9.67;56.99;97763.81;5054006;28;20595;-69
2022/12/20 07:36:26;;;;;;;7.30;5.77;;;;;;;9.71;57.21;97772.25;5050221;28;20183;-68
2022/12/20 07:38:51;;;;;;;8.60;5.93;;;;;;;9.74;57.00;97763.28;5050697;28;20341;-69
2022/12/20 07:41:18;;;;;;;7.20;5.73;;;;;;;9.76;56.74;97767.44;5049324;28;20186;-67
2022/12/20 07:43:43;;;;;;;8.40;5.37;;;;;;;9.76;57.21;97756.13;5051867;28;20211;-70
2022/12/20 07:46:11;;;;;;;9.17;5.27;;;;;;;9.82;57.16;97764.28;5046672;28;20417;-69
2022/12/20 07:48:37;;;;;;;6.30;4.13;;;;;;;9.89;57.49;97764.56;5046608;28;20257;-71
2022/12/20 07:51:17;;;;;;;5.47;4.50;;;;;;;9.92;57.13;97759.06;5043744;28;20445;-69
2022/12/20 07:53:46;;;;;;;4.90;4.10;;;;;;;10.01;56.92;97752.22;5044545;28;20672;-68
2022/12/20 07:56:12;;;;;;;9.43;3.87;;;;;;;10.08;56.47;97760.34;5056505;28;20586;-69
2022/12/20 07:58:39;;;;;;;5.27;4.07;;;;;;;10.15;56.18;97758.81;5054526;28;20971;-69
2022/12/20 08:01:05;;;;;;;4.17;3.77;;;;;;;10.19;56.53;97764.63;5062139;28;20436;-69
2022/12/20 08:03:36;;;;;;;7.30;4.43;;;;;;;10.27;56.05;97754.31;5071754;28;20468;-68
2022/12/20 08:06:04;;;;;;;10.60;4.07;;;;;;;10.35;56.09;97767.53;5054855;28;20429;-68
2022/12/20 08:08:35;;;;;;;5.20;4.40;;;;;;;10.37;56.01;97770.00;5040383;28;20440;-70
2022/12/20 08:11:01;;;;;;;5.10;3.83;;;;;;;10.42;55.77;97773.09;5046127;28;20479;-70
2022/12/20 08:13:27;;;;;;;7.10;4.47;;;;;;;10.47;55.65;97763.00;5045648;28;20425;-69
2022/12/20 08:15:52;;;;;;;6.00;4.67;;;;;;;10.51;55.48;97767.00;5048043;28;20464;-69
2022/12/20 08:18:18;;;;;;;20.67;11.70;;;;;;;10.53;55.34;97754.59;5049746;28;20190;-69
2022/12/20 08:20:43;;;;;;;12.17;8.63;;;;;;;10.57;55.40;97753.38;5049708;28;20766;-69
2022/12/20 08:23:08;;;;;;;18.50;9.33;;;;;;;10.61;55.39;97746.06;5052421;28;20234;-69
2022/12/20 08:25:34;;;;;;;13.10;8.00;;;;;;;10.63;55.12;97743.28;5053056;28;20240;-70
2022/12/20 08:28:01;;;;;;;8.63;6.37;;;;;;;10.65;55.18;97757.06;5052560;28;20191;-68
2022/12/20 08:30:27;;;;;;;9.17;4.90;;;;;;;10.68;54.90;97748.94;5052538;28;20198;-69
2022/12/20 08:32:53;;;;;;;7.70;4.73;;;;;;;10.66;54.67;97746.44;5046834;28;20452;-69
2022/12/20 08:35:19;;;;;;;6.17;4.63;;;;;;;10.64;54.52;97742.31;5053022;28;20426;-70
2022/12/20 08:37:44;;;;;;;8.53;5.90;;;;;;;10.53;54.53;97736.25;5052770;28;20496;-68
2022/12/20 08:40:10;;;;;;;6.67;4.83;;;;;;;10.57;54.60;97732.41;5052760;28;20657;-69
2022/12/20 08:42:35;;;;;;;8.17;5.10;;;;;;;10.60;54.79;97739.16;5057235;28;20315;-70
2022/12/20 08:45:01;;;;;;;9.27;5.40;;;;;;;10.64;54.55;97734.44;5060138;28;20315;-69
2022/12/20 08:47:28;;;;;;;5.60;4.80;;;;;;;10.50;54.64;97733.91;5052963;28;20213;-69
2022/12/20 08:49:53;;;;;;;8.07;5.00;;;;;;;10.67;54.53;97723.69;5052088;28;20583;-69
2022/12/20 08:52:19;;;;;;;9.13;5.20;;;;;;;10.69;54.50;97727.81;5050968;28;20454;-69
2022/12/20 08:54:44;;;;;;;6.50;5.00;;;;;;;10.70;54.75;97726.84;5051726;28;20191;-69
2022/12/20 08:57:10;;;;;;;5.90;5.00;;;;;;;10.68;54.82;97725.34;5052639;28;20639;-70
2022/12/20 08:59:35;;;;;;;9.27;5.20;;;;;;;10.73;54.58;97723.13;5053383;28;20217;-69
2022/12/20 09:02:01;;;;;;;9.60;4.80;;;;;;;10.75;54.65;97729.06;5053090;28;20266;-69
2022/12/20 09:04:26;;;;;;;6.67;4.70;;;;;;;10.65;54.70;97730.88;5049599;28;20306;-70
2022/12/20 09:06:51;;;;;;;7.10;5.40;;;;;;;10.70;54.82;97729.47;5050500;28;20217;-69
2022/12/20 09:09:17;;;;;;;5.57;4.40;;;;;;;10.75;54.37;97729.06;5047689;28;20340;-71
2022/12/20 09:11:42;;;;;;;11.03;4.87;;;;;;;10.81;54.08;97731.13;5052661;28;20590;-69
2022/12/20 09:14:08;;;;;;;6.97;5.30;;;;;;;10.82;54.48;97717.06;5051798;28;20206;-70
2022/12/20 09:16:33;;;;;;;7.33;5.33;;;;;;;10.83;54.26;97713.47;5052598;28;20175;-70
2022/12/20 09:19:01;;;;;;;8.70;5.50;;;;;;;10.90;54.23;97703.19;5052895;28;20209;-69
2022/12/20 09:21:26;;;;;;;10.83;5.43;;;;;;;10.92;54.30;97711.75;5058730;28;20183;-70
2022/12/20 09:23:53;;;;;;;8.53;5.80;;;;;;;10.91;54.21;97710.94;5052612;28;20449;-70
2022/12/20 09:26:21;;;;;;;11.17;5.10;;;;;;;10.94;54.38;97724.75;5054475;28;20266;-69
2022/12/20 09:28:47;;;;;;;9.00;5.07;;;;;;;10.85;54.43;97722.00;5048793;28;20439;-71
2022/12/20 09:31:17;;;;;;;7.90;4.93;;;;;;;10.87;54.42;97730.53;5047795;28;20179;-71
2022/12/20 09:33:43;;;;;;;11.23;4.80;;;;;;;10.87;54.38;97735.78;5049493;28;20438;-71
2022/12/20 09:36:17;;;;;;;10.93;4.50;;;;;;;10.94;54.41;97724.75;5051328;28;20432;-70
2022/12/20 09:38:43;;;;;;;6.50;4.47;;;;;;;10.95;54.34;97711.47;5049355;28;20992;-70
2022/12/20 09:41:18;;;;;;;10.30;4.80;;;;;;;11.00;54.12;97704.03;5047197;28;20467;-70
2022/12/20 09:43:44;;;;;;;11.63;6.17;;;;;;;10.97;54.04;97714.78;5046223;28;20517;-70
2022/12/20 09:46:11;;;;;;;15.00;7.90;;;;;;;11.02;54.33;97717.84;5048942;28;20414;-71
2022/12/20 09:48:37;;;;;;;7.10;6.00;;;;;;;11.03;54.34;97702.91;5042675;28;20423;-69
2022/12/20 09:51:09;;;;;;;8.00;5.60;;;;;;;11.10;54.27;97703.16;5048209;28;20461;-70
2022/12/20 09:54:07;;;;;;;8.93;4.27;;;;;;;11.15;54.19;97687.84;5044917;28;20539;-70
2022/12/20 09:56:40;;;;;;;12.90;4.97;;;;;;;11.18;54.15;97696.22;5046963;28;20936;-68
2022/12/20 09:59:18;;;;;;;8.23;4.50;;;;;;;11.29;53.91;97691.75;5045380;28;20446;-68
2022/12/20 10:01:45;;;;;;;13.70;4.40;;;;;;;11.71;53.76;97680.78;5050443;28;20426;-69
2022/12/20 10:04:17;;;;;;;25.97;4.80;;;;;;;11.83;52.94;97678.75;5042475;28;20820;-69
2022/12/20 10:06:48;;;;;;;8.20;4.43;;;;;;;11.84;52.76;97665.47;5047543;28;20421;-69
2022/12/20 10:09:35;;;;;;;12.47;4.83;;;;;;;11.85;52.47;97671.56;5049815;28;20450;-69
2022/12/20 10:12:13;;;;;;;14.67;4.50;;;;;;;11.87;52.13;97660.88;5048325;28;20521;-69
2022/12/20 10:15:01;;;;;;;13.03;5.00;;;;;;;11.80;52.49;97669.38;5044139;28;20418;-70
2022/12/20 10:17:51;;;;;;;9.40;4.27;;;;;;;11.80;52.19;97679.03;5049157;28;20467;-71
2022/12/20 10:20:26;;;;;;;12.20;4.20;;;;;;;11.78;52.21;97665.25;5049876;28;20492;-69
2022/12/20 10:23:07;;;;;;;6.60;4.43;;;;;;;11.78;52.34;97666.06;5050026;28;20440;-70
2022/12/20 10:25:34;;;;;;;6.13;4.57;;;;;;;11.79;52.08;97659.84;5045221;28;20436;-69
2022/12/20 10:28:02;;;;;;;11.73;4.17;;;;;;;11.78;52.19;97666.06;5048714;28;20920;-70
2022/12/20 10:30:28;;;;;;;6.13;4.00;;;;;;;11.82;52.13;97656.94;5039367;28;20434;-70
2022/12/20 10:32:56;;;;;;;6.23;3.90;;;;;;;11.73;52.26;97652.53;5044425;28;20460;-69
2022/12/20 10:35:30;;;;;;;9.70;4.57;;;;;;;11.82;52.21;97646.44;5050971;28;20414;-70
2022/12/20 10:38:06;;;;;;;11.60;4.80;;;;;;;11.86;52.14;97639.06;5032405;28;20428;-69
2022/12/20 10:40:40;;;;;;;28.63;5.77;;;;;;;11.86;51.78;97643.47;5050820;28;20908;-70
2022/12/20 10:43:13;;;;;;;10.87;3.50;;;;;;;11.89;51.94;97640.56;5046794;28;20408;-69
2022/12/20 10:45:41;;;;;;;6.00;4.30;;;;;;;11.88;52.03;97646.78;5046995;28;20426;-69
2022/12/20 10:48:25;;;;;;;10.97;4.10;;;;;;;11.84;52.22;97649.69;5048631;28;20421;-69
2022/12/20 10:50:58;;;;;;;11.30;4.77;;;;;;;11.86;52.04;97656.59;5051104;28;20428;-70
2022/12/20 10:53:26;;;;;;;9.97;4.57;;;;;;;11.86;52.40;97648.72;5051334;28;20418;-69
2022/12/20 10:55:52;;;;;;;10.20;4.60;;;;;;;11.83;52.28;97642.81;5052973;28;20432;-69
2022/12/20 10:58:30;;;;;;;5.40;4.10;;;;;;;11.82;52.28;97624.56;5055174;28;20428;-69
2022/12/20 11:01:17;;;;;;;7.37;4.20;;;;;;;11.79;52.04;97636.22;5065934;28;20502;-70
2022/12/20 11:03:49;;;;;;;6.10;4.20;;;;;;;11.75;52.01;97636.66;5047678;28;20532;-70
2022/12/20 11:06:16;;;;;;;4.80;4.10;;;;;;;11.72;52.25;97622.00;5052185;28;20544;-70
2022/12/20 11:08:42;;;;;;;4.93;4.37;;;;;;;11.72;52.23;97623.81;5046440;28;20456;-70
2022/12/20 11:11:18;;;;;;;5.70;4.00;;;;;;;11.73;52.42;97621.03;5048763;28;20508;-68
2022/12/20 11:13:44;;;;;;;6.43;3.53;;;;;;;11.73;52.84;97610.53;5043979;28;20601;-69
2022/12/20 11:16:23;;;;;;;8.57;4.43;;;;;;;11.75;52.85;97608.59;5052773;28;21095;-68
2022/12/20 11:18:56;;;;;;;6.37;4.30;;;;;;;11.81;52.67;97602.75;5056419;28;20421;-68
2022/12/20 11:21:39;;;;;;;6.30;4.40;;;;;;;11.82;52.76;97603.56;5049891;28;20421;-69
2022/12/20 11:24:39;;;;;;;7.70;4.77;;;;;;;11.80;52.59;97593.22;5032637;28;20457;-69
2022/12/20 11:27:45;;;;;;;6.27;4.70;;;;;;;11.83;52.74;97599.97;5047919;28;20442;-69
2022/12/20 11:30:29;;;;;;;7.87;4.50;;;;;;;11.90;52.67;97587.06;5058703;28;20818;-69
2022/12/20 11:33:07;;;;;;;5.60;4.00;;;;;;;11.92;52.72;97583.28;5050034;28;20459;-69
2022/12/20 11:35:46;;;;;;;6.20;4.57;;;;;;;11.97;52.61;97594.19;5053323;28;20420;-69
2022/12/20 11:38:17;;;;;;;11.70;4.47;;;;;;;11.97;52.57;97593.38;5049635;28;20421;-70
2022/12/20 11:40:51;;;;;;;8.83;3.57;;;;;;;11.98;52.47;97577.47;5050353;28;20468;-69
2022/12/20 11:43:35;;;;;;;8.80;5.20;;;;;;;12.01;51.88;97570.28;5052398;28;20452;-70
2022/12/20 11:46:36;;;;;;;4.67;3.97;;;;;;;12.00;52.06;97572.06;5050392;28;20507;-69
2022/12/20 11:49:07;;;;;;;9.40;5.60;;;;;;;12.03;51.87;97565.69;5044396;28;20434;-69
2022/12/20 11:52:05;;;;;;;5.67;4.37;;;;;;;12.05;51.75;97566.34;5047501;28;20441;-70